Rubidoux, California
Current Conditions -  °F | °C
As of 7:53 AM on Saturday 25 Oct 2014 (Local Time) from KRAL Reporting Station
Broken Clouds Broken Clouds  
Wind Chill: 64°   Ceiling: 9500
Heat Index: 64°   Visibility: 10mi
Dew Point: 43°   Wind: 3mph
Humidity: 46%   Direction: 130°SE
Pressure: 30.03"   Gusts: NA
Location:  33.9957°N, 117.412°W
Report Text: KRAL 251453Z 13003KT 10SM BKN095 18/06 A3003 RMK AO2 SLP155 T01780061 53013
Loading
Personal Weather Stations






























Interactive Weather Map
Tropical Storm Tracking
New forecast layout! Learn more

10-Day Weather Forecast

Advertisements
Track Severe Weather on mobile